sensor_id;sensor_type;location;lat;lon;timestamp;pressure;altitude;pressure_sealevel;temperature;humidity
76868;BME280;66168;45.478;11.060;2023-03-01T00:01:08;101199.59;;;7.36;49.37
76868;BME280;66168;45.478;11.060;2023-03-01T00:03:35;101192.96;;;7.31;49.84
76868;BME280;66168;45.478;11.060;2023-03-01T00:06:04;101192.32;;;7.33;49.28
76868;BME280;66168;45.478;11.060;2023-03-01T00:08:31;101190.54;;;7.35;49.14
76868;BME280;66168;45.478;11.060;2023-03-01T00:11:16;101185.52;;;7.38;48.85
76868;BME280;66168;45.478;11.060;2023-03-01T00:13:44;101186.57;;;7.40;48.90
76868;BME280;66168;45.478;11.060;2023-03-01T00:16:14;101183.30;;;7.42;48.73
76868;BME280;66168;45.478;11.060;2023-03-01T00:18:42;101182.38;;;7.45;48.83
76868;BME280;66168;45.478;11.060;2023-03-01T00:21:09;101182.55;;;7.41;49.38
76868;BME280;66168;45.478;11.060;2023-03-01T00:23:36;101178.83;;;7.37;49.72
76868;BME280;66168;45.478;11.060;2023-03-01T00:26:09;101172.15;;;7.33;49.82
76868;BME280;66168;45.478;11.060;2023-03-01T00:28:36;101164.92;;;7.28;50.05
76868;BME280;66168;45.478;11.060;2023-03-01T00:31:04;101168.58;;;7.21;50.20
76868;BME280;66168;45.478;11.060;2023-03-01T00:33:32;101170.13;;;7.16;50.31
76868;BME280;66168;45.478;11.060;2023-03-01T00:35:59;101163.89;;;7.09;50.40
76868;BME280;66168;45.478;11.060;2023-03-01T00:38:26;101164.76;;;7.01;50.23
76868;BME280;66168;45.478;11.060;2023-03-01T00:40:53;101165.77;;;6.96;50.37
76868;BME280;66168;45.478;11.060;2023-03-01T00:43:21;101166.55;;;6.91;50.43
76868;BME280;66168;45.478;11.060;2023-03-01T00:45:47;101158.60;;;6.84;50.27
76868;BME280;66168;45.478;11.060;2023-03-01T00:48:14;101157.46;;;6.75;50.84
76868;BME280;66168;45.478;11.060;2023-03-01T00:50:41;101160.17;;;6.69;51.48
76868;BME280;66168;45.478;11.060;2023-03-01T00:53:07;101158.23;;;6.63;51.33
76868;BME280;66168;45.478;11.060;2023-03-01T00:55:35;101155.17;;;6.56;51.54
76868;BME280;66168;45.478;11.060;2023-03-01T00:58:02;101148.13;;;6.50;51.67
76868;BME280;66168;45.478;11.060;2023-03-01T01:00:29;101146.42;;;6.46;51.52
76868;BME280;66168;45.478;11.060;2023-03-01T01:02:55;101148.50;;;6.40;51.78
76868;BME280;66168;45.478;11.060;2023-03-01T01:05:22;101140.45;;;6.33;51.88
76868;BME280;66168;45.478;11.060;2023-03-01T01:07:49;101139.52;;;6.26;51.92
76868;BME280;66168;45.478;11.060;2023-03-01T01:10:16;101135.45;;;6.19;52.22
76868;BME280;66168;45.478;11.060;2023-03-01T01:12:47;101132.43;;;6.15;52.43
76868;BME280;66168;45.478;11.060;2023-03-01T01:15:14;101130.92;;;6.14;52.31
76868;BME280;66168;45.478;11.060;2023-03-01T01:17:43;101128.05;;;6.13;52.24
76868;BME280;66168;45.478;11.060;2023-03-01T01:20:11;101128.96;;;6.10;52.52
76868;BME280;66168;45.478;11.060;2023-03-01T01:22:38;101128.73;;;6.07;52.62
76868;BME280;66168;45.478;11.060;2023-03-01T01:25:05;101127.61;;;6.02;52.67
76868;BME280;66168;45.478;11.060;2023-03-01T01:27:31;101120.26;;;5.95;52.73
76868;BME280;66168;45.478;11.060;2023-03-01T01:29:58;101121.95;;;5.88;53.04
76868;BME280;66168;45.478;11.060;2023-03-01T01:32:25;101117.17;;;5.80;53.19
76868;BME280;66168;45.478;11.060;2023-03-01T01:34:52;101112.56;;;5.72;53.41
76868;BME280;66168;45.478;11.060;2023-03-01T01:37:19;101108.78;;;5.65;53.44
76868;BME280;66168;45.478;11.060;2023-03-01T01:39:46;101098.57;;;5.60;53.65
76868;BME280;66168;45.478;11.060;2023-03-01T01:42:16;101100.27;;;5.54;54.03
76868;BME280;66168;45.478;11.060;2023-03-01T01:44:45;101097.61;;;5.49;54.09
76868;BME280;66168;45.478;11.060;2023-03-01T01:47:18;101094.64;;;5.42;54.13
76868;BME280;66168;45.478;11.060;2023-03-01T01:49:49;101090.58;;;5.37;54.58
76868;BME280;66168;45.478;11.060;2023-03-01T01:52:25;101081.59;;;5.30;54.33
76868;BME280;66168;45.478;11.060;2023-03-01T01:55:06;101078.66;;;5.28;54.60
76868;BME280;66168;45.478;11.060;2023-03-01T01:57:44;101074.77;;;5.28;54.85
76868;BME280;66168;45.478;11.060;2023-03-01T02:00:16;101076.38;;;5.25;55.03
76868;BME280;66168;45.478;11.060;2023-03-01T02:02:44;101074.13;;;5.23;55.32
76868;BME280;66168;45.478;11.060;2023-03-01T02:05:25;101075.49;;;5.17;55.50
76868;BME280;66168;45.478;11.060;2023-03-01T02:07:53;101073.63;;;5.13;55.55
76868;BME280;66168;45.478;11.060;2023-03-01T02:10:22;101070.14;;;5.08;55.39
76868;BME280;66168;45.478;11.060;2023-03-01T02:12:50;101066.89;;;5.08;55.40
76868;BME280;66168;45.478;11.060;2023-03-01T02:15:16;101063.63;;;5.04;55.59
76868;BME280;66168;45.478;11.060;2023-03-01T02:17:43;101059.67;;;5.01;55.76
76868;BME280;66168;45.478;11.060;2023-03-01T02:20:19;101054.77;;;4.97;55.86
76868;BME280;66168;45.478;11.060;2023-03-01T02:22:51;101052.05;;;4.92;56.13
76868;BME280;66168;45.478;11.060;2023-03-01T02:25:34;101047.76;;;4.89;56.06
76868;BME280;66168;45.478;11.060;2023-03-01T02:30:43;101040.05;;;4.85;56.30
76868;BME280;66168;45.478;11.060;2023-03-01T02:33:31;101035.98;;;4.83;56.13
76868;BME280;66168;45.478;11.060;2023-03-01T02:36:02;101030.20;;;4.85;56.30
76868;BME280;66168;45.478;11.060;2023-03-01T02:38:31;101030.03;;;4.87;56.43
76868;BME280;66168;45.478;11.060;2023-03-01T02:40:59;101024.80;;;4.88;56.16
76868;BME280;66168;45.478;11.060;2023-03-01T02:43:31;101023.02;;;4.90;56.13
76868;BME280;66168;45.478;11.060;2023-03-01T02:46:07;101019.29;;;4.93;55.82
76868;BME280;66168;45.478;11.060;2023-03-01T02:48:46;101016.23;;;4.96;55.97
76868;BME280;66168;45.478;11.060;2023-03-01T02:51:19;101017.94;;;5.00;55.95
76868;BME280;66168;45.478;11.060;2023-03-01T02:53:58;101016.11;;;5.05;55.65
76868;BME280;66168;45.478;11.060;2023-03-01T02:56:26;101007.81;;;5.08;55.81
76868;BME280;66168;45.478;11.060;2023-03-01T02:58:54;101000.00;;;5.09;56.00
76868;BME280;66168;45.478;11.060;2023-03-01T03:01:21;100998.09;;;5.10;55.91
76868;BME280;66168;45.478;11.060;2023-03-01T03:03:48;100999.33;;;5.12;55.81
76868;BME280;66168;45.478;11.060;2023-03-01T03:06:16;100994.27;;;5.14;55.91
76868;BME280;66168;45.478;11.060;2023-03-01T03:08:43;100984.71;;;5.15;56.17
76868;BME280;66168;45.478;11.060;2023-03-01T03:11:10;100982.22;;;5.17;55.95
76868;BME280;66168;45.478;11.060;2023-03-01T03:13:37;100983.80;;;5.21;56.08
76868;BME280;66168;45.478;11.060;2023-03-01T03:16:05;100986.67;;;5.26;55.92
76868;BME280;66168;45.478;11.060;2023-03-01T03:18:32;100979.89;;;5.32;56.03
76868;BME280;66168;45.478;11.060;2023-03-01T03:20:58;100983.08;;;5.38;55.99
76868;BME280;66168;45.478;11.060;2023-03-01T03:23:25;100979.47;;;5.42;55.52
76868;BME280;66168;45.478;11.060;2023-03-01T03:25:52;100988.98;;;5.48;55.25
76868;BME280;66168;45.478;11.060;2023-03-01T03:28:18;100989.77;;;5.55;55.42
76868;BME280;66168;45.478;11.060;2023-03-01T03:30:45;100984.66;;;5.59;55.32
76868;BME280;66168;45.478;11.060;2023-03-01T03:33:13;100978.65;;;5.62;55.31
76868;BME280;66168;45.478;11.060;2023-03-01T03:35:45;100973.88;;;5.64;55.25
76868;BME280;66168;45.478;11.060;2023-03-01T03:38:14;100980.18;;;5.68;55.14
76868;BME280;66168;45.478;11.060;2023-03-01T03:40:50;100977.73;;;5.71;54.98
76868;BME280;66168;45.478;11.060;2023-03-01T03:43:18;100972.44;;;5.74;55.27
76868;BME280;66168;45.478;11.060;2023-03-01T03:45:46;100977.58;;;5.75;55.36
76868;BME280;66168;45.478;11.060;2023-03-01T03:48:14;100976.05;;;5.78;55.03
76868;BME280;66168;45.478;11.060;2023-03-01T03:50:41;100978.59;;;5.81;54.86
76868;BME280;66168;45.478;11.060;2023-03-01T03:53:11;100970.95;;;5.84;55.04
76868;BME280;66168;45.478;11.060;2023-03-01T03:55:38;100974.16;;;5.88;54.69
76868;BME280;66168;45.478;11.060;2023-03-01T03:58:08;100973.00;;;5.91;54.70
76868;BME280;66168;45.478;11.060;2023-03-01T04:00:38;100972.09;;;5.96;54.59
76868;BME280;66168;45.478;11.060;2023-03-01T04:03:06;100976.48;;;5.99;54.29
76868;BME280;66168;45.478;11.060;2023-03-01T04:05:34;100970.80;;;6.04;54.22
76868;BME280;66168;45.478;11.060;2023-03-01T04:08:01;100973.28;;;6.08;54.20
76868;BME280;66168;45.478;11.060;2023-03-01T04:10:31;100972.81;;;6.13;54.10
76868;BME280;66168;45.478;11.060;2023-03-01T04:12:58;100971.20;;;6.21;54.12
76868;BME280;66168;45.478;11.060;2023-03-01T04:15:26;100967.73;;;6.26;54.05
76868;BME280;66168;45.478;11.060;2023-03-01T04:17:54;100970.51;;;6.28;53.95
76868;BME280;66168;45.478;11.060;2023-03-01T04:20:24;100972.27;;;6.30;54.01
76868;BME280;66168;45.478;11.060;2023-03-01T04:22:56;100963.71;;;6.31;53.81
76868;BME280;66168;45.478;11.060;2023-03-01T04:25:24;100960.06;;;6.32;53.78
76868;BME280;66168;45.478;11.060;2023-03-01T04:27:51;100966.36;;;6.31;53.74
76868;BME280;66168;45.478;11.060;2023-03-01T04:30:18;100963.41;;;6.32;54.03
76868;BME280;66168;45.478;11.060;2023-03-01T04:32:45;100967.06;;;6.32;54.06
76868;BME280;66168;45.478;11.060;2023-03-01T04:35:11;100966.23;;;6.32;53.99
76868;BME280;66168;45.478;11.060;2023-03-01T04:37:38;100966.83;;;6.31;54.37
76868;BME280;66168;45.478;11.060;2023-03-01T04:40:05;100958.37;;;6.33;54.20
76868;BME280;66168;45.478;11.060;2023-03-01T04:42:42;100955.17;;;6.34;54.42
76868;BME280;66168;45.478;11.060;2023-03-01T04:45:09;100959.23;;;6.35;54.36
76868;BME280;66168;45.478;11.060;2023-03-01T04:47:41;100961.39;;;6.37;54.39
76868;BME280;66168;45.478;11.060;2023-03-01T04:50:11;100960.54;;;6.37;54.66
76868;BME280;66168;45.478;11.060;2023-03-01T04:52:38;100958.73;;;6.37;54.51
76868;BME280;66168;45.478;11.060;2023-03-01T04:55:06;100960.07;;;6.38;54.62
76868;BME280;66168;45.478;11.060;2023-03-01T04:57:33;100962.67;;;6.41;54.50
76868;BME280;66168;45.478;11.060;2023-03-01T05:00:00;100963.70;;;6.43;54.43
76868;BME280;66168;45.478;11.060;2023-03-01T05:02:27;100966.56;;;6.44;54.51
76868;BME280;66168;45.478;11.060;2023-03-01T05:04:53;100964.98;;;6.44;54.40
76868;BME280;66168;45.478;11.060;2023-03-01T05:07:24;100965.42;;;6.43;54.49
76868;BME280;66168;45.478;11.060;2023-03-01T05:09:51;100959.92;;;6.42;55.00
76868;BME280;66168;45.478;11.060;2023-03-01T05:12:20;100956.42;;;6.40;54.87
76868;BME280;66168;45.478;11.060;2023-03-01T05:14:47;100951.17;;;6.37;55.17
76868;BME280;66168;45.478;11.060;2023-03-01T05:17:13;100949.28;;;6.37;55.03
76868;BME280;66168;45.478;11.060;2023-03-01T05:19:40;100952.39;;;6.38;55.22
76868;BME280;66168;45.478;11.060;2023-03-01T05:22:09;100948.48;;;6.38;55.10
76868;BME280;66168;45.478;11.060;2023-03-01T05:24:36;100950.77;;;6.40;54.91
76868;BME280;66168;45.478;11.060;2023-03-01T05:27:03;100955.17;;;6.38;55.01
76868;BME280;66168;45.478;11.060;2023-03-01T05:29:31;100956.31;;;6.37;55.25
76868;BME280;66168;45.478;11.060;2023-03-01T05:32:02;100957.59;;;6.34;55.55
76868;BME280;66168;45.478;11.060;2023-03-01T05:34:33;100960.07;;;6.32;55.64
76868;BME280;66168;45.478;11.060;2023-03-01T05:37:02;100951.63;;;6.30;55.53
76868;BME280;66168;45.478;11.060;2023-03-01T05:39:29;100951.29;;;6.28;55.69
76868;BME280;66168;45.478;11.060;2023-03-01T05:41:59;100950.88;;;6.29;55.49
76868;BME280;66168;45.478;11.060;2023-03-01T05:44:28;100953.81;;;6.31;55.47
76868;BME280;66168;45.478;11.060;2023-03-01T05:46:55;100952.95;;;6.33;55.75
76868;BME280;66168;45.478;11.060;2023-03-01T05:49:23;100953.89;;;6.36;55.88
76868;BME280;66168;45.478;11.060;2023-03-01T05:51:52;100949.02;;;6.38;55.84
76868;BME280;66168;45.478;11.060;2023-03-01T05:54:20;100947.25;;;6.38;55.81
76868;BME280;66168;45.478;11.060;2023-03-01T05:56:47;100942.70;;;6.37;55.84
76868;BME280;66168;45.478;11.060;2023-03-01T05:59:13;100943.02;;;6.38;55.74
76868;BME280;66168;45.478;11.060;2023-03-01T06:01:42;100941.83;;;6.38;55.68
76868;BME280;66168;45.478;11.060;2023-03-01T06:04:09;100941.33;;;6.39;55.47
76868;BME280;66168;45.478;11.060;2023-03-01T06:06:37;100940.98;;;6.41;55.70
76868;BME280;66168;45.478;11.060;2023-03-01T06:09:05;100941.35;;;6.41;55.76
76868;BME280;66168;45.478;11.060;2023-03-01T06:11:35;100945.80;;;6.40;55.69
76868;BME280;66168;45.478;11.060;2023-03-01T06:14:02;100945.48;;;6.38;55.96
76868;BME280;66168;45.478;11.060;2023-03-01T06:16:29;100944.27;;;6.38;56.13
76868;BME280;66168;45.478;11.060;2023-03-01T06:18:56;100942.52;;;6.37;56.12
76868;BME280;66168;45.478;11.060;2023-03-01T06:21:42;100943.40;;;6.39;56.14
76868;BME280;66168;45.478;11.060;2023-03-01T06:24:08;100944.38;;;6.42;56.14
76868;BME280;66168;45.478;11.060;2023-03-01T06:26:35;100942.23;;;6.44;55.76
76868;BME280;66168;45.478;11.060;2023-03-01T06:29:02;100942.73;;;6.47;56.12
76868;BME280;66168;45.478;11.060;2023-03-01T06:31:28;100937.27;;;6.50;55.89
76868;BME280;66168;45.478;11.060;2023-03-01T06:33:55;100932.61;;;6.55;55.94
76868;BME280;66168;45.478;11.060;2023-03-01T06:36:22;100934.80;;;6.58;55.66
76868;BME280;66168;45.478;11.060;2023-03-01T06:38:49;100926.06;;;6.61;55.94
76868;BME280;66168;45.478;11.060;2023-03-01T06:41:16;100924.41;;;6.65;55.91
76868;BME280;66168;45.478;11.060;2023-03-01T06:43:42;100925.02;;;6.70;55.94
76868;BME280;66168;45.478;11.060;2023-03-01T06:46:09;100922.60;;;6.75;55.87
76868;BME280;66168;45.478;11.060;2023-03-01T06:48:36;100921.02;;;6.80;55.85
76868;BME280;66168;45.478;11.060;2023-03-01T06:51:02;100921.61;;;6.87;55.79
76868;BME280;66168;45.478;11.060;2023-03-01T06:53:30;100923.61;;;6.90;55.80
76868;BME280;66168;45.478;11.060;2023-03-01T06:55:58;100927.42;;;6.87;55.76
76868;BME280;66168;45.478;11.060;2023-03-01T06:58:26;100928.45;;;6.89;55.94
76868;BME280;66168;45.478;11.060;2023-03-01T07:00:53;100922.41;;;6.95;55.90
76868;BME280;66168;45.478;11.060;2023-03-01T07:03:19;100922.34;;;6.98;56.84
76868;BME280;66168;45.478;11.060;2023-03-01T07:05:49;100931.55;;;7.01;55.84
76868;BME280;66168;45.478;11.060;2023-03-01T07:08:16;100930.15;;;7.07;55.35
76868;BME280;66168;45.478;11.060;2023-03-01T07:10:43;100928.46;;;7.10;55.23
76868;BME280;66168;45.478;11.060;2023-03-01T07:13:10;100926.55;;;7.14;55.38
76868;BME280;66168;45.478;11.060;2023-03-01T07:15:36;100924.86;;;7.19;55.58
76868;BME280;66168;45.478;11.060;2023-03-01T07:18:03;100922.55;;;7.19;56.16
76868;BME280;66168;45.478;11.060;2023-03-01T07:20:30;100922.86;;;7.24;56.07
76868;BME280;66168;45.478;11.060;2023-03-01T07:22:56;100926.05;;;7.30;55.76
76868;BME280;66168;45.478;11.060;2023-03-01T07:25:25;100925.18;;;7.32;55.18
76868;BME280;66168;45.478;11.060;2023-03-01T07:27:52;100925.71;;;7.29;55.30
76868;BME280;66168;45.478;11.060;2023-03-01T07:30:20;100919.60;;;7.24;55.86
76868;BME280;66168;45.478;11.060;2023-03-01T07:32:47;100918.02;;;7.26;56.09
76868;BME280;66168;45.478;11.060;2023-03-01T07:35:14;100919.80;;;7.30;56.24
76868;BME280;66168;45.478;11.060;2023-03-01T07:37:41;100923.29;;;7.35;56.11
76868;BME280;66168;45.478;11.060;2023-03-01T07:40:10;100917.45;;;7.39;56.30
76868;BME280;66168;45.478;11.060;2023-03-01T07:42:37;100904.67;;;7.43;55.79
76868;BME280;66168;45.478;11.060;2023-03-01T07:45:05;100903.55;;;7.46;56.18
76868;BME280;66168;45.478;11.060;2023-03-01T07:47:32;100897.61;;;7.49;56.76
76868;BME280;66168;45.478;11.060;2023-03-01T07:49:59;100896.94;;;7.54;56.79
76868;BME280;66168;45.478;11.060;2023-03-01T07:52:27;100889.00;;;7.63;56.93
76868;BME280;66168;45.478;11.060;2023-03-01T07:54:54;100881.08;;;7.68;57.17
76868;BME280;66168;45.478;11.060;2023-03-01T07:57:21;100882.95;;;7.67;56.89
76868;BME280;66168;45.478;11.060;2023-03-01T07:59:48;100882.32;;;7.70;56.43
76868;BME280;66168;45.478;11.060;2023-03-01T08:02:14;100883.90;;;7.73;55.81
76868;BME280;66168;45.478;11.060;2023-03-01T08:04:42;100879.80;;;7.77;55.59
76868;BME280;66168;45.478;11.060;2023-03-01T08:07:08;100880.84;;;7.86;55.34
76868;BME280;66168;45.478;11.060;2023-03-01T08:09:35;100872.54;;;7.95;54.95
76868;BME280;66168;45.478;11.060;2023-03-01T08:12:04;100869.48;;;8.08;54.76
76868;BME280;66168;45.478;11.060;2023-03-01T08:14:32;100862.78;;;8.25;54.44
76868;BME280;66168;45.478;11.060;2023-03-01T08:16:58;100860.63;;;8.39;54.21
76868;BME280;66168;45.478;11.060;2023-03-01T08:19:25;100846.89;;;8.51;53.22
76868;BME280;66168;45.478;11.060;2023-03-01T08:21:54;100844.70;;;8.69;52.93
76868;BME280;66168;45.478;11.060;2023-03-01T08:24:21;100846.56;;;8.84;52.36
76868;BME280;66168;45.478;11.060;2023-03-01T08:26:48;100848.02;;;8.91;52.07
76868;BME280;66168;45.478;11.060;2023-03-01T08:29:15;100846.18;;;8.96;51.66
76868;BME280;66168;45.478;11.060;2023-03-01T08:31:42;100839.14;;;9.08;51.65
76868;BME280;66168;45.478;11.060;2023-03-01T08:34:12;100842.91;;;9.02;51.16
76868;BME280;66168;45.478;11.060;2023-03-01T08:36:41;100840.63;;;8.92;51.44
76868;BME280;66168;45.478;11.060;2023-03-01T08:39:10;100845.43;;;8.92;52.23
76868;BME280;66168;45.478;11.060;2023-03-01T08:41:38;100849.20;;;8.80;52.89
76868;BME280;66168;45.478;11.060;2023-03-01T08:44:06;100849.42;;;8.71;52.81
76868;BME280;66168;45.478;11.060;2023-03-01T08:46:38;100844.80;;;8.64;53.17
76868;BME280;66168;45.478;11.060;2023-03-01T08:49:11;100840.64;;;8.54;53.37
76868;BME280;66168;45.478;11.060;2023-03-01T08:51:39;100836.69;;;8.56;54.22
76868;BME280;66168;45.478;11.060;2023-03-01T08:54:09;100835.12;;;8.52;54.64
76868;BME280;66168;45.478;11.060;2023-03-01T08:56:37;100827.45;;;8.44;54.53
76868;BME280;66168;45.478;11.060;2023-03-01T08:59:04;100821.05;;;8.34;54.86
76868;BME280;66168;45.478;11.060;2023-03-01T09:01:31;100811.34;;;8.36;55.60
76868;BME280;66168;45.478;11.060;2023-03-01T09:03:58;100814.13;;;8.38;55.55
76868;BME280;66168;45.478;11.060;2023-03-01T09:06:25;100815.60;;;8.46;55.08
76868;BME280;66168;45.478;11.060;2023-03-01T09:08:51;100815.76;;;8.52;54.99
76868;BME280;66168;45.478;11.060;2023-03-01T09:11:20;100817.74;;;8.58;54.56
76868;BME280;66168;45.478;11.060;2023-03-01T09:13:48;100814.54;;;8.68;54.28
76868;BME280;66168;45.478;11.060;2023-03-01T09:16:17;100814.66;;;8.72;53.88
76868;BME280;66168;45.478;11.060;2023-03-01T09:18:45;100811.14;;;8.63;54.56
76868;BME280;66168;45.478;11.060;2023-03-01T09:21:14;100806.32;;;8.66;54.45
76868;BME280;66168;45.478;11.060;2023-03-01T09:23:44;100801.54;;;8.66;54.45
76868;BME280;66168;45.478;11.060;2023-03-01T09:26:17;100798.71;;;8.71;54.24
76868;BME280;66168;45.478;11.060;2023-03-01T09:28:46;100798.80;;;8.70;54.30
76868;BME280;66168;45.478;11.060;2023-03-01T09:31:14;100798.21;;;8.70;54.15
76868;BME280;66168;45.478;11.060;2023-03-01T09:33:42;100799.81;;;8.72;54.17
76868;BME280;66168;45.478;11.060;2023-03-01T09:36:16;100801.45;;;8.78;53.94
76868;BME280;66168;45.478;11.060;2023-03-01T09:38:43;100799.48;;;8.86;53.75
76868;BME280;66168;45.478;11.060;2023-03-01T09:44:18;100790.86;;;9.01;53.14
76868;BME280;66168;45.478;11.060;2023-03-01T09:46:47;100780.99;;;9.09;53.34
76868;BME280;66168;45.478;11.060;2023-03-01T09:49:29;100785.79;;;9.19;53.10
76868;BME280;66168;45.478;11.060;2023-03-01T09:52:15;100777.54;;;9.30;52.54
76868;BME280;66168;45.478;11.060;2023-03-01T09:54:49;100765.14;;;9.38;52.26
76868;BME280;66168;45.478;11.060;2023-03-01T09:57:24;100761.60;;;9.46;51.95
76868;BME280;66168;45.478;11.060;2023-03-01T10:02:52;100755.42;;;9.52;51.51
76868;BME280;66168;45.478;11.060;2023-03-01T10:05:36;100754.23;;;9.59;51.20
76868;BME280;66168;45.478;11.060;2023-03-01T10:08:26;100750.18;;;9.63;50.54
76868;BME280;66168;45.478;11.060;2023-03-01T10:16:54;100756.59;;;9.63;49.62
76868;BME280;66168;45.478;11.060;2023-03-01T10:19:31;100759.10;;;9.61;50.21
76868;BME280;66168;45.478;11.060;2023-03-01T10:22:05;100754.66;;;9.63;49.52
76868;BME280;66168;45.478;11.060;2023-03-01T10:24:36;100749.80;;;9.63;49.08
76868;BME280;66168;45.478;11.060;2023-03-01T10:27:34;100749.31;;;9.68;48.78
76868;BME280;66168;45.478;11.060;2023-03-01T10:30:36;100749.23;;;9.70;48.17
76868;BME280;66168;45.478;11.060;2023-03-01T10:33:14;100754.09;;;9.74;47.80
76868;BME280;66168;45.478;11.060;2023-03-01T10:35:42;100747.24;;;9.78;47.34
76868;BME280;66168;45.478;11.060;2023-03-01T10:38:11;100748.92;;;9.90;47.35
76868;BME280;66168;45.478;11.060;2023-03-01T10:43:25;100745.49;;;10.17;47.58
76868;BME280;66168;45.478;11.060;2023-03-01T10:45:53;100735.77;;;10.26;47.16
76868;BME280;66168;45.478;11.060;2023-03-01T10:48:24;100729.00;;;10.34;47.55
76868;BME280;66168;45.478;11.060;2023-03-01T10:58:26;100724.98;;;10.47;45.95
76868;BME280;66168;45.478;11.060;2023-03-01T11:00:58;100721.11;;;10.53;47.19
76868;BME280;66168;45.478;11.060;2023-03-01T11:03:29;100715.36;;;10.67;46.97
76868;BME280;66168;45.478;11.060;2023-03-01T11:08:45;100713.48;;;10.86;45.78
76868;BME280;66168;45.478;11.060;2023-03-01T11:17:23;100731.02;;;10.66;45.89
76868;BME280;66168;45.478;11.060;2023-03-01T11:22:47;100726.56;;;10.44;46.55
76868;BME280;66168;45.478;11.060;2023-03-01T11:25:17;100723.98;;;10.51;46.59
76868;BME280;66168;45.478;11.060;2023-03-01T11:27:46;100736.64;;;10.59;45.88
76868;BME280;66168;45.478;11.060;2023-03-01T11:30:34;100744.08;;;10.60;46.05
76868;BME280;66168;45.478;11.060;2023-03-01T11:35:44;100756.70;;;10.27;46.28
76868;BME280;66168;45.478;11.060;2023-03-01T11:38:21;100756.30;;;10.18;46.61
76868;BME280;66168;45.478;11.060;2023-03-01T11:41:08;100755.23;;;10.20;47.30
76868;BME280;66168;45.478;11.060;2023-03-01T11:43:55;100764.08;;;10.23;47.63
76868;BME280;66168;45.478;11.060;2023-03-01T11:52:13;100770.57;;;10.25;48.28
76868;BME280;66168;45.478;11.060;2023-03-01T12:08:35;100776.08;;;10.30;50.93
76868;BME280;66168;45.478;11.060;2023-03-01T12:11:39;100773.38;;;10.16;51.94
76868;BME280;66168;45.478;11.060;2023-03-01T12:14:34;100786.30;;;10.00;52.28
76868;BME280;66168;45.478;11.060;2023-03-01T12:23:29;100785.47;;;10.01;54.29
76868;BME280;66168;45.478;11.060;2023-03-01T12:51:38;100765.05;;;9.68;58.08
76868;BME280;66168;45.478;11.060;2023-03-01T12:54:18;100754.98;;;9.73;57.59
76868;BME280;66168;45.478;11.060;2023-03-01T12:56:46;100744.95;;;9.78;58.22
76868;BME280;66168;45.478;11.060;2023-03-01T12:59:33;100733.86;;;9.89;58.79
76868;BME280;66168;45.478;11.060;2023-03-01T13:02:12;100730.90;;;10.01;58.17
76868;BME280;66168;45.478;11.060;2023-03-01T13:08:10;100719.54;;;10.18;57.28
76868;BME280;66168;45.478;11.060;2023-03-01T13:13:14;100717.27;;;10.28;57.28
76868;BME280;66168;45.478;11.060;2023-03-01T13:15:41;100722.84;;;10.31;56.35
76868;BME280;66168;45.478;11.060;2023-03-01T13:20:56;100717.51;;;10.26;56.14
76868;BME280;66168;45.478;11.060;2023-03-01T13:23:35;100719.23;;;10.25;56.04
76868;BME280;66168;45.478;11.060;2023-03-01T13:26:10;100708.39;;;10.28;55.23
76868;BME280;66168;45.478;11.060;2023-03-01T13:28:53;100704.99;;;10.32;55.24
76868;BME280;66168;45.478;11.060;2023-03-01T13:33:56;100704.73;;;10.40;54.25
76868;BME280;66168;45.478;11.060;2023-03-01T13:46:52;100693.52;;;10.23;51.50
76868;BME280;66168;45.478;11.060;2023-03-01T13:49:22;100693.58;;;10.28;51.95
76868;BME280;66168;45.478;11.060;2023-03-01T13:51:50;100693.05;;;10.29;51.96
76868;BME280;66168;45.478;11.060;2023-03-01T13:54:26;100691.90;;;10.31;51.86
76868;BME280;66168;45.478;11.060;2023-03-01T13:56:55;100693.45;;;10.33;51.92
76868;BME280;66168;45.478;11.060;2023-03-01T13:59:23;100698.92;;;10.35;51.83
76868;BME280;66168;45.478;11.060;2023-03-01T14:04:25;100703.18;;;10.33;52.07
76868;BME280;66168;45.478;11.060;2023-03-01T14:07:19;100706.50;;;10.28;52.03
76868;BME280;66168;45.478;11.060;2023-03-01T14:09:59;100696.91;;;10.23;52.41
76868;BME280;66168;45.478;11.060;2023-03-01T14:15:17;100702.92;;;10.16;53.58
76868;BME280;66168;45.478;11.060;2023-03-01T14:17:57;100705.48;;;10.08;54.27
76868;BME280;66168;45.478;11.060;2023-03-01T14:20:28;100704.04;;;10.04;54.76
76868;BME280;66168;45.478;11.060;2023-03-01T14:22:59;100713.11;;;9.97;55.18
76868;BME280;66168;45.478;11.060;2023-03-01T14:25:31;100724.45;;;9.86;55.36
76868;BME280;66168;45.478;11.060;2023-03-01T14:30:50;100724.50;;;9.41;58.81
76868;BME280;66168;45.478;11.060;2023-03-01T14:33:29;100731.34;;;9.33;58.73
76868;BME280;66168;45.478;11.060;2023-03-01T14:36:04;100723.70;;;9.30;59.91
76868;BME280;66168;45.478;11.060;2023-03-01T14:38:35;100727.79;;;9.25;60.16
76868;BME280;66168;45.478;11.060;2023-03-01T14:41:14;100728.07;;;9.16;61.54
76868;BME280;66168;45.478;11.060;2023-03-01T14:43:58;100726.19;;;9.09;61.72
76868;BME280;66168;45.478;11.060;2023-03-01T14:46:38;100715.80;;;9.00;62.35
76868;BME280;66168;45.478;11.060;2023-03-01T14:52:06;100715.11;;;9.00;62.29
76868;BME280;66168;45.478;11.060;2023-03-01T14:54:41;100710.65;;;9.02;62.21
76868;BME280;66168;45.478;11.060;2023-03-01T14:57:28;100710.95;;;9.01;62.90
76868;BME280;66168;45.478;11.060;2023-03-01T14:59:58;100701.84;;;9.02;62.65
76868;BME280;66168;45.478;11.060;2023-03-01T15:02:29;100699.14;;;8.99;63.24
76868;BME280;66168;45.478;11.060;2023-03-01T15:04:58;100695.42;;;8.97;62.84
76868;BME280;66168;45.478;11.060;2023-03-01T15:07:33;100701.41;;;9.01;63.56